GAP2986 RPVA-RPLL
Flight info
| Callsign | GAP2986 |
|---|---|
| Flight time | N/A |
| Altitude | 31000 |
| Route | MALA5R MALAG W9 AKDAP AKDA3R |
| Aircraft | A320/M-VGDW/C |
Departure
| Time | 2026-05-05 08:08 |
|---|---|
| Airport | Daniel Z. Romualdez Airport (RPVA) |
Arrival
| Time | N/A |
|---|---|
| Airport | Ninoy Aquino International Airport (RPLL) |
| Time | Latitude | Longitude | Altitude | Speed | Heading |
|---|---|---|---|---|---|
| 2026-05-05 07:54 | 11.22738 | 125.02654 | 20 ft | 0 kts | 317° |
| 2026-05-05 08:03 | 11.22741 | 125.02653 | 20 ft | 0 kts | 354° |
| 2026-05-05 08:03 | 11.22744 | 125.02659 | 20 ft | 2 kts | 79° |
| 2026-05-05 08:03 | 11.22745 | 125.02675 | 20 ft | 4 kts | 87° |
| 2026-05-05 08:04 | 11.22757 | 125.02730 | 20 ft | 8 kts | 64° |
| 2026-05-05 08:04 | 11.22762 | 125.02746 | 20 ft | 7 kts | 82° |
| 2026-05-05 08:04 | 11.22688 | 125.02769 | 20 ft | 9 kts | 183° |
| 2026-05-05 08:04 | 11.22610 | 125.02766 | 20 ft | 13 kts | 183° |
| 2026-05-05 08:05 | 11.22505 | 125.02759 | 20 ft | 16 kts | 184° |
| 2026-05-05 08:05 | 11.22380 | 125.02750 | 21 ft | 19 kts | 185° |
| 2026-05-05 08:05 | 11.22238 | 125.02740 | 21 ft | 21 kts | 184° |
| 2026-05-05 08:05 | 11.22188 | 125.02737 | 21 ft | 22 kts | 182° |
| 2026-05-05 08:06 | 11.21934 | 125.02721 | 22 ft | 16 kts | 182° |
| 2026-05-05 08:06 | 11.21854 | 125.02737 | 22 ft | 10 kts | 159° |
| 2026-05-05 08:06 | 11.21810 | 125.02735 | 22 ft | 5 kts | 225° |
| 2026-05-05 08:06 | 11.21811 | 125.02711 | 22 ft | 2 kts | 335° |
| 2026-05-05 08:07 | 11.21825 | 125.02711 | 22 ft | 0 kts | 5° |
| 2026-05-05 08:07 | 11.21846 | 125.02713 | 22 ft | 19 kts | 4° |
| 2026-05-05 08:07 | 11.22251 | 125.02742 | 21 ft | 93 kts | 3° |
| 2026-05-05 08:08 | 11.23109 | 125.02797 | 20 ft | 152 kts | 5° |
| 2026-05-05 08:08 | 11.24233 | 125.02864 | 424 ft | 162 kts | 6° |
| 2026-05-05 08:08 | 11.25367 | 125.02927 | 1035 ft | 164 kts | 7° |
| 2026-05-05 08:08 | 11.26492 | 125.03001 | 1661 ft | 166 kts | 8° |
| 2026-05-05 08:09 | 11.27690 | 125.03087 | 2185 ft | 178 kts | 9° |
| 2026-05-05 08:09 | 11.28975 | 125.03181 | 2650 ft | 194 kts | 8° |
| 2026-05-05 08:09 | 11.30394 | 125.03282 | 3089 ft | 214 kts | 7° |
| 2026-05-05 08:09 | 11.31966 | 125.03390 | 3532 ft | 236 kts | 6° |
| 2026-05-05 08:10 | 11.33656 | 125.03182 | 4031 ft | 261 kts | 340° |
| 2026-05-05 08:10 | 11.35170 | 125.02051 | 4677 ft | 278 kts | 317° |
| 2026-05-05 08:10 | 11.36529 | 125.00642 | 5482 ft | 284 kts | 317° |
| 2026-05-05 08:10 | 11.37945 | 124.99209 | 6329 ft | 287 kts | 317° |
| 2026-05-05 08:11 | 11.39374 | 124.97778 | 7170 ft | 291 kts | 317° |
| 2026-05-05 08:11 | 11.40816 | 124.96343 | 7962 ft | 295 kts | 317° |
| 2026-05-05 08:11 | 11.42297 | 124.94872 | 8729 ft | 299 kts | 317° |
| 2026-05-05 08:11 | 11.43792 | 124.93388 | 9478 ft | 302 kts | 317° |
| 2026-05-05 08:12 | 11.45292 | 124.91898 | 10191 ft | 306 kts | 317° |
| 2026-05-05 08:12 | 11.46855 | 124.90346 | 10633 ft | 321 kts | 317° |
| 2026-05-05 08:12 | 11.48509 | 124.88703 | 10957 ft | 339 kts | 317° |
| 2026-05-05 08:12 | 11.50225 | 124.87000 | 11247 ft | 356 kts | 316° |
| 2026-05-05 08:13 | 11.52046 | 124.85190 | 11656 ft | 368 kts | 316° |
| 2026-05-05 08:13 | 11.53901 | 124.83347 | 12291 ft | 372 kts | 316° |
| 2026-05-05 08:13 | 11.55754 | 124.81508 | 12967 ft | 374 kts | 317° |
| 2026-05-05 08:13 | 11.57698 | 124.79732 | 13608 ft | 376 kts | 321° |
| 2026-05-05 08:14 | 11.59743 | 124.78109 | 14188 ft | 379 kts | 325° |
| 2026-05-05 08:14 | 11.61937 | 124.76584 | 14742 ft | 382 kts | 327° |
| 2026-05-05 08:14 | 11.64174 | 124.75081 | 15290 ft | 387 kts | 328° |
| 2026-05-05 08:14 | 11.64924 | 124.74578 | 15467 ft | 388 kts | 328° |
| 2026-05-05 08:15 | 11.68721 | 124.72035 | 16348 ft | 394 kts | 328° |